Flight Track Log - Related Links

Times and Time Zones

All times are in EDT time to prevent confusion due to time zone crossing. See the N3FA flight status page for this flight to view local times or setup timezone preferences in your user account.


Time Position Orientation Groundspeed Altitude Reporting Facility
EDT Latitude Longitude Course Direction KTS MPH feet Rate Location/Type
Fri 09:50:19 AM 36.0556 -75.8644 North 359 413 9,500  Level Washington Center
Fri 09:51:20 AM 36.0889 -75.9183 307° West 290 334 11,100 1,714 Climbing Washington Center
Fri 09:52:00 AM 36.2722 -76.1667 North  Level FlightAware Approximate
Fri 09:52:18 AM 36.1575 -75.9625 333° Northwest 255 293 12,900  Level Washington Center
Fri 09:53:19 AM 36.2347 -75.9911 343° North 266 306 15,000 2,066 Climbing Washington Center
Fri 09:54:20 AM 36.3097 -76.0172 344° North 272 313 17,100 1,934 Climbing Washington Center
Fri 09:55:20 AM 36.3825 -76.0408 345° North 272 313 18,900 1,932 Climbing Washington Center
Fri 09:56:18 AM 36.4597 -76.0647 346° North 277 319 20,900 1,831 Climbing Washington Center
Fri 09:57:18 AM 36.5347 -76.0883 346° North 277 319 22,500 1,550 Climbing Washington Center
Fri 09:58:18 AM 36.6158 -76.1147 345° North 282 325 24,000 1,488 Climbing Washington Center
Fri 09:59:19 AM 36.6931 -76.1411 345° North 282 325 25,500 1,438 Climbing Washington Center
Fri 10:00:19 AM 36.7722 -76.1364 North 274 315 26,900 750 Climbing Washington Center
Fri 10:01:19 AM 36.8581 -76.0956 21° North 298 343 27,000 50 Climbing Washington Center
Fri 10:02:20 AM 36.9478 -76.0572 19° North 308 354 27,000  Level Washington Center
Fri 10:03:20 AM 37.0544 -76.0056 21° North 339 390 27,000  Level Washington Center
Fri 10:04:18 AM 37.1506 -75.9542 23° Northeast 359 413 27,000  Level Washington Center
Fri 10:05:18 AM 37.2467 -75.9022 23° Northeast 366 421 27,000  Level Washington Center
Fri 10:06:19 AM 37.3450 -75.8506 23° Northeast 376 433 27,000  Level Washington Center
Fri 10:07:20 AM 37.4431 -75.7986 23° Northeast 376 433 27,000  Level Washington Center
Fri 10:08:20 AM 37.5411 -75.7464 23° Northeast 376 433 27,000  Level Washington Center
Fri 10:09:18 AM 37.6414 -75.6967 21° North 376 433 27,000  Level Washington Center
Fri 10:10:20 AM 37.7372 -75.6417 24° Northeast 376 433 27,000 -700 Level Washington Center
Fri 10:11:18 AM 37.8372 -75.5892 23° Northeast 376 433 25,600 -1,576 Descending Washington Center
Fri 10:12:18 AM 37.9375 -75.5364 23° Northeast 376 433 23,900 -1,785 Descending Washington Center
Fri 10:13:19 AM 38.0333 -75.4836 23° Northeast 376 433 22,000 -1,869 Descending Washington Center
Fri 10:14:20 AM 38.1272 -75.4228 27° Northeast 376 433 20,100 -1,869 Descending Washington Center
Fri 10:15:21 AM 38.2167 -75.3672 26° Northeast 365 420 18,200 -1,765 Descending Washington Center
Fri 10:16:19 AM 38.3042 -75.3139 26° Northeast 354 407 16,600 -1,563 Descending Washington Center
Fri 10:17:20 AM 38.3811 -75.2581 30° Northeast 349 402 15,100 -1,600 Descending Washington Center
Fri 10:18:19 AM 38.4664 -75.2072 25° Northeast 339 390 13,400 -1,650 Descending Washington Center
Fri 10:19:20 AM 38.5517 -75.1536 26° Northeast 339 390 11,800 -1,210 Descending Washington Center
Fri 10:20:18 AM 38.6328 -75.1000 27° Northeast 333 383 11,000 -403 Descending Washington Center
Fri 10:21:19 AM 38.7139 -75.0517 25° Northeast 328 377 11,000  Level Washington Center
Fri 10:22:20 AM 38.7972 -74.9950 28° Northeast 328 377 11,000 -403 Level Washington Center
Fri 10:23:18 AM 38.8781 -74.9411 27° Northeast 323 372 10,200 -1,271 Descending Washington Center
Fri 10:24:18 AM 38.9528 -74.8950 26° Northeast 310 357 8,500 -1,100 Descending Washington Center
Fri 10:25:18 AM 39.0236 -74.8489 27° Northeast 297 342 8,000 -248 Descending Washington Center
Fri 10:26:19 AM 39.0961 -74.8081 24° Northeast 285 328 8,000 -397 Level Washington Center
Fri 10:27:19 AM 39.1603 -74.7378 40° Northeast 285 328 7,200 -496 Descending Washington Center
Fri 10:28:20 AM 39.2181 -74.6728 41° Northeast 285 328 7,000 -101 Descending Washington Center
Fri 10:29:18 AM 39.2781 -74.6075 40° Northeast 280 322 7,000 -504 Level Washington Center
Fri 10:30:19 AM 39.3464 -74.5556 30° Northeast 280 322 6,000 -984 Descending Washington Center
Fri 10:31:20 AM 39.4169 -74.5225 20° North 268 308 5,000 -504 Descending Washington Center
Fri 10:32:18 AM 39.4833 -74.4892 21° North 262 302 5,000  Level Washington Center
Fri 10:33:18 AM 39.5497 -74.4558 21° North 257 296 5,000  Level Washington Center
Fri 10:34:19 AM 39.6181 -74.4197 22° Northeast 257 296 5,000  Level Washington Center
Fri 10:36:00 AM 39.7513 -74.3510 38° Northeast  Level Estimated
Fri 10:43:00 AM 40.1731 -74.1090 330° Northwest  Level FlightAware Approximate
Fri 10:44:00 AM 40.1833 -74.1167 330° Northwest  Level FlightAware Approximate
Fri 10:45:00 AM 40.1867 -74.1246 330° Northwest  Level Estimated
Fri 10:46:00 AM 40.1833 -74.1167 330° Northwest  Level FlightAware Approximate
Fri 10:47:00 AM 40.1867 -74.1246 330° Northwest  Level Estimated
Fri 10:48:00 AM 40.1833 -74.1167 330° Northwest  Level FlightAware Approximate
Fri 10:49:00 AM 40.1867 -74.1246 330° Northwest  Level Estimated
Fri 10:50:00 AM 40.1833 -74.1167 330° Northwest  Level FlightAware Approximate
Fri 10:51:00 AM 40.1867 -74.1246 330° Northwest  Level Estimated

Login

Don't have an account? Register now (free) for customized features, flight alerts, and more!